^^
Grace C. Lehan Memorial Weather Station Historical Data
Daily Summary for January 20, 2022 Units:  Both    English   Metric
Daily Weekly Monthly Yearly
  High: Low: Average:
Temperature: 38.3 °F /  3.5 °C 29.3 °F /  -1.5 °C 34.7 °F /  1.5 °C
Dew Point: 25.5 °F /  -3.6 °C 8.1 °F /  -13.3 °C 17.2 °F /  -8.2 °C
Humidity: 78% 34% 50%
Wind Speed: 19mph /  30.6km/h - 5.3mph /  8.5km/h
Wind Gust: 30mph /  48.3km/h - -
Wind- - West
Pressure: 30.13 in /  1020.2 hPa 29.89 in /  1012.1 hPa -
Precipitation: 0.00 in /  0 mm    
 
 
Tabular Data for January 20, 2022
Time Temperature Dew Point Pressure Wind Wind Speed Wind Gust Humidity Rainfall Rate (Hourly) solar
01:30 29.3 °F /  -1.5 °C 21.1 °F /  -6.1 °C 29.94in /  1013.8hPa Calm     71% 0.00in /  0mm 0 W/m2
02:30 30.5 °F /  -0.8 °C 22.2 °F /  -5.4 °C 29.93in /  1013.4hPa Calm   3mph /  4.8km/h 71% 0.00in /  0mm 0 W/m2
03:00 32.1 °F /  0.1 °C 23.1 °F /  -4.9 °C 29.92in /  1013.1hPa WSW 1mph /  1.6km/h 9mph /  14.5km/h 69% 0.00in /  0mm 0 W/m2
03:30 32.7 °F /  0.4 °C 24.4 °F /  -4.2 °C 29.90in /  1012.4hPa Calm   7mph /  11.3km/h 71% 0.00in /  0mm 0 W/m2
04:04 32.5 °F /  0.3 °C 25.5 °F /  -3.6 °C 29.90in /  1012.4hPa Calm     75% 0.00in /  0mm 0 W/m2
04:09 32.5 °F /  0.3 °C 25.5 °F /  -3.6 °C 29.90in /  1012.4hPa Calm   1mph /  1.6km/h 75% 0.00in /  0mm 0 W/m2
04:14 32.4 °F /  0.2 °C 25.4 °F /  -3.7 °C 29.89in /  1012.1hPa WSW 0.4mph /  0.6km/h 4mph /  6.4km/h 75% 0.00in /  0mm 0 W/m2
04:19 32.3 °F /  0.2 °C 25.5 °F /  -3.6 °C 29.89in /  1012.1hPa WSW 0.1mph /  0.2km/h 4mph /  6.4km/h 75.5% 0.00in /  0mm 0 W/m2
04:24 32.2 °F /  0.1 °C 25.5 °F /  -3.6 °C 29.89in /  1012.1hPa WSW 0.1mph /  0.2km/h 4mph /  6.4km/h 76% 0.00in /  0mm 0 W/m2
04:29 32.1 °F /  0.1 °C 25.4 °F /  -3.7 °C 29.89in /  1012.1hPa WSW 0.5mph /  0.8km/h 4mph /  6.4km/h 76% 0.00in /  0mm 0 W/m2
04:34 31.9 °F /  -0.1 °C 25.2 °F /  -3.8 °C 29.90in /  1012.4hPa WSW 0.7mph /  1.1km/h 4mph /  6.4km/h 76% 0.00in /  0mm 0 W/m2
04:39 31.8 °F /  -0.1 °C 25.4 °F /  -3.7 °C 29.90in /  1012.4hPa WSW 0.1mph /  0.2km/h 3mph /  4.8km/h 77% 0.00in /  0mm 0 W/m2
04:44 31.6 °F /  -0.2 °C 25.3 °F /  -3.7 °C 29.90in /  1012.4hPa WSW 1.5mph /  2.4km/h 5mph /  8km/h 77% 0.00in /  0mm 0 W/m2
04:49 31.6 °F /  -0.2 °C 25.4 °F /  -3.7 °C 29.89in /  1012.1hPa WSW 0.7mph /  1.1km/h 5mph /  8km/h 77.7% 0.00in /  0mm 0 W/m2
04:54 31.5 °F /  -0.3 °C 25.4 °F /  -3.7 °C 29.90in /  1012.4hPa WSW 0.4mph /  0.6km/h 5mph /  8km/h 78% 0.00in /  0mm 0 W/m2
04:59 31.4 °F /  -0.3 °C 25.4 °F /  -3.7 °C 29.90in /  1012.4hPa WSW 0.1mph /  0.2km/h 5mph /  8km/h 78% 0.00in /  0mm 0 W/m2
05:04 31.3 °F /  -0.4 °C 25.3 °F /  -3.7 °C 29.90in /  1012.4hPa WSW 0.3mph /  0.5km/h 5mph /  8km/h 78% 0.00in /  0mm 0 W/m2
05:09 31.2 °F /  -0.4 °C 25.1 °F /  -3.8 °C 29.91in /  1012.8hPa WSW 0.5mph /  0.8km/h 6mph /  9.7km/h 77.9% 0.00in /  0mm 0 W/m2
05:14 31.1 °F /  -0.5 °C 24.9 °F /  -3.9 °C 29.90in /  1012.4hPa WSW 1mph /  1.6km/h 9mph /  14.5km/h 77.3% 0.00in /  0mm 0 W/m2
05:19 31 °F /  -0.6 °C 24.7 °F /  -4.1 °C 29.90in /  1012.4hPa WSW 1.3mph /  2.1km/h 9mph /  14.5km/h 77% 0.00in /  0mm 0 W/m2
05:24 31 °F /  -0.6 °C 24.6 °F /  -4.1 °C 29.90in /  1012.4hPa WSW 2.6mph /  4.2km/h 11mph /  17.7km/h 76.9% 0.00in /  0mm 0 W/m2
05:29 31.1 °F /  -0.5 °C 24.2 °F /  -4.3 °C 29.90in /  1012.4hPa SW 2.2mph /  3.5km/h 11mph /  17.7km/h 75.3% 0.00in /  0mm 0 W/m2
05:34 31.3 °F /  -0.4 °C 24 °F /  -4.4 °C 29.90in /  1012.4hPa WSW 2.2mph /  3.5km/h 11mph /  17.7km/h 74% 0.00in /  0mm 0 W/m2
05:39 31.4 °F /  -0.3 °C 23.6 °F /  -4.7 °C 29.90in /  1012.4hPa WSW 1.1mph /  1.8km/h 9mph /  14.5km/h 72.5% 0.00in /  0mm 0 W/m2
05:44 31.5 °F /  -0.3 °C 23.4 °F /  -4.8 °C 29.91in /  1012.8hPa West 2.6mph /  4.2km/h 12mph /  19.3km/h 71.6% 0.00in /  0mm 0 W/m2
05:49 31.5 °F /  -0.3 °C 23.1 °F /  -4.9 °C 29.91in /  1012.8hPa WSW 1.5mph /  2.4km/h 12mph /  19.3km/h 70.6% 0.00in /  0mm 0 W/m2
05:54 31.5 °F /  -0.3 °C 22.6 °F /  -5.2 °C 29.91in /  1012.8hPa WSW 2.6mph /  4.2km/h 12mph /  19.3km/h 69.2% 0.00in /  0mm 0 W/m2
05:59 31.6 °F /  -0.2 °C 22.2 °F /  -5.4 °C 29.91in /  1012.8hPa WSW 3mph /  4.8km/h 13mph /  20.9km/h 67.8% 0.00in /  0mm 0 W/m2
06:04 31.7 °F /  -0.2 °C 21.8 °F /  -5.7 °C 29.91in /  1012.8hPa WSW 2.1mph /  3.4km/h 13mph /  20.9km/h 66.5% 0.00in /  0mm 0 W/m2
06:09 31.8 °F /  -0.1 °C 21.5 °F /  -5.8 °C 29.91in /  1012.8hPa West 3.1mph /  5km/h 13mph /  20.9km/h 65.5% 0.00in /  0mm 0 W/m2
06:14 31.8 °F /  -0.1 °C 21.4 °F /  -5.9 °C 29.91in /  1012.8hPa WSW 2mph /  3.2km/h 13mph /  20.9km/h 65% 0.00in /  0mm 0 W/m2
06:19 31.8 °F /  -0.1 °C 21 °F /  -6.1 °C 29.92in /  1013.1hPa West 1.9mph /  3.1km/h 13mph /  20.9km/h 64% 0.00in /  0mm 0 W/m2
06:24 31.8 °F /  -0.1 °C 20.7 °F /  -6.3 °C 29.92in /  1013.1hPa WSW 2.5mph /  4km/h 13mph /  20.9km/h 63.3% 0.00in /  0mm 0 W/m2
06:29 31.7 °F /  -0.2 °C 20.5 °F /  -6.4 °C 29.92in /  1013.1hPa West 1.9mph /  3.1km/h 13mph /  20.9km/h 62.7% 0.00in /  0mm 0 W/m2
06:34 31.7 °F /  -0.2 °C 20 °F /  -6.7 °C 29.92in /  1013.1hPa SW 1mph /  1.6km/h 13mph /  20.9km/h 61.6% 0.00in /  0mm 0 W/m2
06:39 31.7 °F /  -0.2 °C 19.8 °F /  -6.8 °C 29.92in /  1013.1hPa WSW 2.2mph /  3.5km/h 10mph /  16.1km/h 61% 0.00in /  0mm 0 W/m2
06:44 31.7 °F /  -0.2 °C 19.5 °F /  -6.9 °C 29.92in /  1013.1hPa WSW 1.6mph /  2.6km/h 10mph /  16.1km/h 60.1% 0.00in /  0mm 0 W/m2
06:49 31.8 °F /  -0.1 °C 19.1 °F /  -7.2 °C 29.92in /  1013.1hPa WSW 1.7mph /  2.7km/h 10mph /  16.1km/h 59% 0.00in /  0mm 5 W/m2
06:54 31.9 °F /  -0.1 °C 19.2 °F /  -7.1 °C 29.93in /  1013.4hPa WSW 0.9mph /  1.4km/h 10mph /  16.1km/h 58.9% 0.00in /  0mm 9 W/m2
06:59 31.9 °F /  -0.1 °C 18.8 °F /  -7.3 °C 29.93in /  1013.4hPa WSW 1.5mph /  2.4km/h 10mph /  16.1km/h 58% 0.00in /  0mm 12 W/m2
07:04 31.9 °F /  -0.1 °C 18.8 °F /  -7.3 °C 29.93in /  1013.4hPa WSW 1.1mph /  1.8km/h 10mph /  16.1km/h 58% 0.00in /  0mm 18 W/m2
07:09 31.9 °F /  -0.1 °C 18.8 °F /  -7.3 °C 29.93in /  1013.4hPa West 0.7mph /  1.1km/h 5mph /  8km/h 58% 0.00in /  0mm 25 W/m2
07:14 32.1 °F /  0.1 °C 18.7 °F /  -7.4 °C 29.94in /  1013.8hPa SW 1.9mph /  3.1km/h 10mph /  16.1km/h 57.5% 0.00in /  0mm 30 W/m2
07:19 32.3 °F /  0.2 °C 18.9 °F /  -7.3 °C 29.94in /  1013.8hPa WSW 0.5mph /  0.8km/h 10mph /  16.1km/h 57.3% 0.00in /  0mm 54 W/m2
07:24 32.5 °F /  0.3 °C 19.4 °F /  -7 °C 29.94in /  1013.8hPa WSW 0.2mph /  0.3km/h 10mph /  16.1km/h 58% 0.00in /  0mm 86 W/m2
07:29 32.9 °F /  0.5 °C 19.4 °F /  -7 °C 29.95in /  1014.1hPa WSW 0.6mph /  1km/h 10mph /  16.1km/h 57% 0.00in /  0mm 100 W/m2
07:34 33.6 °F /  0.9 °C 19.8 °F /  -6.8 °C 29.95in /  1014.1hPa WSW 0.8mph /  1.3km/h 10mph /  16.1km/h 56.4% 0.00in /  0mm 116 W/m2
07:39 34.5 °F /  1.4 °C 20.2 °F /  -6.6 °C 29.95in /  1014.1hPa WSW 0.5mph /  0.8km/h 5mph /  8km/h 55.4% 0.00in /  0mm 134 W/m2
07:44 35.3 °F /  1.8 °C 20.6 °F /  -6.3 °C 29.95in /  1014.1hPa WSW 0.1mph /  0.2km/h 5mph /  8km/h 54.8% 0.00in /  0mm 148 W/m2
07:49 36 °F /  2.2 °C 20.6 °F /  -6.3 °C 29.95in /  1014.1hPa WSW 0.8mph /  1.3km/h 5mph /  8km/h 52.9% 0.00in /  0mm 151 W/m2
07:54 36.6 °F /  2.6 °C 20.3 °F /  -6.5 °C 29.96in /  1014.4hPa WSW 0.4mph /  0.6km/h 5mph /  8km/h 51.3% 0.00in /  0mm 156 W/m2
07:59 36.9 °F /  2.7 °C 20.6 °F /  -6.3 °C 29.96in /  1014.4hPa SW 1mph /  1.6km/h 6mph /  9.7km/h 51.2% 0.00in /  0mm 169 W/m2
08:04 37.2 °F /  2.9 °C 20.8 °F /  -6.2 °C 29.95in /  1014.1hPa Calm     51% 0.00in /  0mm 169 W/m2
08:09 37.3 °F /  2.9 °C 20.4 °F /  -6.4 °C 29.96in /  1014.4hPa WSW 1.5mph /  2.4km/h 9mph /  14.5km/h 50.2% 0.00in /  0mm 190 W/m2
08:14 37.4 °F /  3 °C 20.5 °F /  -6.4 °C 29.96in /  1014.4hPa WSW 0.5mph /  0.8km/h 9mph /  14.5km/h 50.3% 0.00in /  0mm 227 W/m2
08:19 37.7 °F /  3.2 °C 20.5 °F /  -6.4 °C 29.96in /  1014.4hPa WSW 2.2mph /  3.5km/h 12mph /  19.3km/h 49.4% 0.00in /  0mm 241 W/m2
08:24 37.9 °F /  3.3 °C 20.8 °F /  -6.2 °C 29.96in /  1014.4hPa WSW 3.3mph /  5.3km/h 13mph /  20.9km/h 49.7% 0.00in /  0mm 258 W/m2
08:29 38.1 °F /  3.4 °C 20.6 °F /  -6.3 °C 29.97in /  1014.8hPa West 1.8mph /  2.9km/h 13mph /  20.9km/h 49% 0.00in /  0mm 264 W/m2
08:34 38.3 °F /  3.5 °C 20.7 °F /  -6.3 °C 29.97in /  1014.8hPa WSW 2.4mph /  3.9km/h 13mph /  20.9km/h 48.7% 0.00in /  0mm 279 W/m2
08:39 38.3 °F /  3.5 °C 19.9 °F /  -6.7 °C 29.97in /  1014.8hPa WSW 7mph /  11.3km/h 17mph /  27.4km/h 47.1% 0.00in /  0mm 288 W/m2
08:44 38.1 °F /  3.4 °C 19.4 °F /  -7 °C 29.97in /  1014.8hPa West 7.4mph /  11.9km/h 17mph /  27.4km/h 46.5% 0.00in /  0mm 302 W/m2
08:49 37.9 °F /  3.3 °C 19.1 °F /  -7.2 °C 29.98in /  1015.1hPa WNW 7.1mph /  11.4km/h 17mph /  27.4km/h 46.2% 0.00in /  0mm 336 W/m2
08:54 37.7 °F /  3.2 °C 18.7 °F /  -7.4 °C 29.98in /  1015.1hPa West 8.8mph /  14.2km/h 24mph /  38.6km/h 45.8% 0.00in /  0mm 309 W/m2
08:59 37.3 °F /  2.9 °C 18.5 °F /  -7.5 °C 29.98in /  1015.1hPa West 8.6mph /  13.8km/h 24mph /  38.6km/h 46.2% 0.00in /  0mm 276 W/m2
09:04 36.9 °F /  2.7 °C 19 °F /  -7.2 °C 29.98in /  1015.1hPa West 7.7mph /  12.4km/h 24mph /  38.6km/h 48% 0.00in /  0mm 281 W/m2
09:09 36.6 °F /  2.6 °C 19.2 °F /  -7.1 °C 29.99in /  1015.5hPa West 8.9mph /  14.3km/h 22mph /  35.4km/h 49% 0.00in /  0mm 146 W/m2
09:14 36.1 °F /  2.3 °C 19.3 °F /  -7.1 °C 29.99in /  1015.5hPa WNW 7.2mph /  11.6km/h 22mph /  35.4km/h 50% 0.00in /  0mm 72 W/m2
09:19 35.5 °F /  1.9 °C 20.1 °F /  -6.6 °C 30.00in /  1015.8hPa NW 5.1mph /  8.2km/h 22mph /  35.4km/h 52.9% 0.00in /  0mm 76 W/m2
09:24 35 °F /  1.7 °C 20.7 °F /  -6.3 °C 30.00in /  1015.8hPa NW 6.3mph /  10.1km/h 22mph /  35.4km/h 55.5% 0.00in /  0mm 67 W/m2
09:29 34.4 °F /  1.3 °C 20.8 °F /  -6.2 °C 30.00in /  1015.8hPa WNW 8.7mph /  14km/h 22mph /  35.4km/h 57% 0.00in /  0mm 72 W/m2
09:34 33.9 °F /  1.1 °C 20.7 °F /  -6.3 °C 30.00in /  1015.8hPa WNW 8.9mph /  14.3km/h 22mph /  35.4km/h 57.9% 0.00in /  0mm 105 W/m2
09:39 33.7 °F /  0.9 °C 20.9 °F /  -6.2 °C 30.01in /  1016.1hPa WNW 8.5mph /  13.7km/h 19mph /  30.6km/h 59.1% 0.00in /  0mm 185 W/m2
09:44 33.8 °F /  1 °C 21.4 °F /  -5.9 °C 30.01in /  1016.1hPa NW 5.8mph /  9.3km/h 19mph /  30.6km/h 60% 0.00in /  0mm 211 W/m2
09:49 34.2 °F /  1.2 °C 21.6 °F /  -5.8 °C 30.00in /  1015.8hPa WNW 7.6mph /  12.2km/h 19mph /  30.6km/h 59.5% 0.00in /  0mm 232 W/m2
09:54 34.7 °F /  1.5 °C 21.8 °F /  -5.7 °C 30.00in /  1015.8hPa West 5.9mph /  9.5km/h 19mph /  30.6km/h 58.9% 0.00in /  0mm 258 W/m2
09:59 35.2 °F /  1.8 °C 22 °F /  -5.6 °C 30.00in /  1015.8hPa West 4.6mph /  7.4km/h 19mph /  30.6km/h 58.1% 0.00in /  0mm 396 W/m2
10:04 35.9 °F /  2.2 °C 22 °F /  -5.6 °C 30.00in /  1015.8hPa West 5.1mph /  8.2km/h 19mph /  30.6km/h 56.6% 0.00in /  0mm 506 W/m2
10:09 36.8 °F /  2.7 °C 22.6 °F /  -5.2 °C 30.00in /  1015.8hPa West 3.5mph /  5.6km/h 16mph /  25.7km/h 56% 0.00in /  0mm 512 W/m2
10:14 37.6 °F /  3.1 °C 22.6 °F /  -5.2 °C 30.01in /  1016.1hPa WNW 9.5mph /  15.3km/h 19mph /  30.6km/h 54.2% 0.00in /  0mm 480 W/m2
10:19 37.9 °F /  3.3 °C 22.1 °F /  -5.5 °C 30.01in /  1016.1hPa WNW 6.2mph /  10km/h 19mph /  30.6km/h 52.6% 0.00in /  0mm 469 W/m2
10:24 38.1 °F /  3.4 °C 22.4 °F /  -5.3 °C 30.01in /  1016.1hPa West 6.6mph /  10.6km/h 19mph /  30.6km/h 52.9% 0.00in /  0mm 584 W/m2
10:29 38.3 °F /  3.5 °C 22.3 °F /  -5.4 °C 30.01in /  1016.1hPa WNW 10.4mph /  16.7km/h 19mph /  30.6km/h 52.2% 0.00in /  0mm 584 W/m2
10:34 38.1 °F /  3.4 °C 22 °F /  -5.6 °C 30.01in /  1016.1hPa WNW 6.8mph /  10.9km/h 19mph /  30.6km/h 51.8% 0.00in /  0mm 531 W/m2
10:39 37.7 °F /  3.2 °C 20.7 °F /  -6.3 °C 30.02in /  1016.5hPa WNW 6.9mph /  11.1km/h 18mph /  29km/h 50% 0.00in /  0mm 243 W/m2
10:44 37.4 °F /  3 °C 20.1 °F /  -6.6 °C 30.02in /  1016.5hPa West 7.3mph /  11.7km/h 18mph /  29km/h 49.3% 0.00in /  0mm 243 W/m2
10:49 37.4 °F /  3 °C 20.2 °F /  -6.6 °C 30.01in /  1016.1hPa West 4mph /  6.4km/h 18mph /  29km/h 49.4% 0.00in /  0mm 264 W/m2
10:54 37.9 °F /  3.3 °C 19.8 °F /  -6.8 °C 30.01in /  1016.1hPa West 7.9mph /  12.7km/h 21mph /  33.8km/h 47.6% 0.00in /  0mm 415 W/m2
10:59 38.3 °F /  3.5 °C 18.9 °F /  -7.3 °C 30.01in /  1016.1hPa WNW 9.3mph /  15km/h 24mph /  38.6km/h 45.3% 0.00in /  0mm 264 W/m2
11:04 38.1 °F /  3.4 °C 18.5 °F /  -7.5 °C 30.01in /  1016.1hPa WNW 11.7mph /  18.8km/h 24mph /  38.6km/h 44.7% 0.00in /  0mm 325 W/m2
11:09 37.8 °F /  3.2 °C 18.3 °F /  -7.6 °C 30.01in /  1016.1hPa WNW 9.7mph /  15.6km/h 22mph /  35.4km/h 44.8% 0.00in /  0mm 515 W/m2
11:14 37.7 °F /  3.2 °C 18.7 °F /  -7.4 °C 30.01in /  1016.1hPa West 6.4mph /  10.3km/h 22mph /  35.4km/h 45.9% 0.00in /  0mm 515 W/m2
11:19 37.5 °F /  3.1 °C 17.9 °F /  -7.8 °C 30.01in /  1016.1hPa WNW 12mph /  19.3km/h 29mph /  46.7km/h 44.7% 0.00in /  0mm 109 W/m2
11:24 36.8 °F /  2.7 °C 17 °F /  -8.3 °C 30.00in /  1015.8hPa WNW 9.4mph /  15.1km/h 29mph /  46.7km/h 44.3% 0.00in /  0mm 105 W/m2
11:29 36.3 °F /  2.4 °C 16.9 °F /  -8.4 °C 30.00in /  1015.8hPa WNW 9mph /  14.5km/h 29mph /  46.7km/h 44.9% 0.00in /  0mm 156 W/m2
11:34 36.5 °F /  2.5 °C 17.6 °F /  -8 °C 30.00in /  1015.8hPa West 8.5mph /  13.7km/h 29mph /  46.7km/h 45.9% 0.00in /  0mm 179 W/m2
11:39 36.9 °F /  2.7 °C 17.3 °F /  -8.2 °C 30.00in /  1015.8hPa West 4.9mph /  7.9km/h 23mph /  37km/h 44.5% 0.00in /  0mm 88 W/m2
11:44 37.3 °F /  2.9 °C 17.4 °F /  -8.1 °C 30.00in /  1015.8hPa West 7.3mph /  11.7km/h 23mph /  37km/h 44% 0.00in /  0mm 278 W/m2
11:49 37.3 °F /  2.9 °C 17 °F /  -8.3 °C 30.01in /  1016.1hPa WNW 11.3mph /  18.2km/h 23mph /  37km/h 43.3% 0.00in /  0mm 118 W/m2
11:54 36.7 °F /  2.6 °C 16.7 °F /  -8.5 °C 30.01in /  1016.1hPa West 10.1mph /  16.3km/h 23mph /  37km/h 43.7% 0.00in /  0mm 98 W/m2
11:59 36.6 °F /  2.6 °C 17 °F /  -8.3 °C 30.01in /  1016.1hPa WNW 12.7mph /  20.4km/h 26mph /  41.8km/h 44.6% 0.00in /  0mm 323 W/m2
12:00 36.9 °F /  2.7 °C 17 °F /  -8.3 °C 30.01in /  1016.1hPa NW 19mph /  30.6km/h 26mph /  41.8km/h 44% 0.00in /  0mm 104 W/m2
12:09 37.6 °F /  3.1 °C 15.6 °F /  -9.1 °C 30.00in /  1015.8hPa West 11.9mph /  19.2km/h 24mph /  38.6km/h 40.3% 0.00in /  0mm 213 W/m2
12:14 37.7 °F /  3.2 °C 14.6 °F /  -9.7 °C 30.00in /  1015.8hPa WNW 13.3mph /  21.4km/h 24mph /  38.6km/h 38.4% 0.00in /  0mm 272 W/m2
12:19 37.8 °F /  3.2 °C 14.9 °F /  -9.5 °C 30.00in /  1015.8hPa West 12.3mph /  19.8km/h 25mph /  40.2km/h 38.7% 0.00in /  0mm 272 W/m2
12:24 37.6 °F /  3.1 °C 14.3 °F /  -9.8 °C 29.99in /  1015.5hPa West 9.5mph /  15.3km/h 25mph /  40.2km/h 38% 0.00in /  0mm 153 W/m2
12:29 37.2 °F /  2.9 °C 14.5 °F /  -9.7 °C 30.00in /  1015.8hPa West 8.5mph /  13.7km/h 25mph /  40.2km/h 39% 0.00in /  0mm 288 W/m2
12:34 37 °F /  2.8 °C 14.4 °F /  -9.8 °C 29.99in /  1015.5hPa WNW 7.9mph /  12.7km/h 25mph /  40.2km/h 39% 0.00in /  0mm 76 W/m2
12:39 36.7 °F /  2.6 °C 14 °F /  -10 °C 29.99in /  1015.5hPa WNW 9.7mph /  15.6km/h 21mph /  33.8km/h 38.8% 0.00in /  0mm 135 W/m2
12:44 36.4 °F /  2.4 °C 12.2 °F /  -11 °C 29.99in /  1015.5hPa WNW 13.8mph /  22.2km/h 24mph /  38.6km/h 36.3% 0.00in /  0mm 135 W/m2
12:49 36 °F /  2.2 °C 11.1 °F /  -11.6 °C 30.00in /  1015.8hPa WNW 12.4mph /  20km/h 24mph /  38.6km/h 35.1% 0.00in /  0mm 54 W/m2
12:54 35.6 °F /  2 °C 10.7 °F /  -11.8 °C 30.00in /  1015.8hPa WNW 10mph /  16.1km/h 24mph /  38.6km/h 35% 0.00in /  0mm 58 W/m2
12:59 35.4 °F /  1.9 °C 10.5 °F /  -11.9 °C 29.99in /  1015.5hPa WNW 8.7mph /  14km/h 27mph /  43.5km/h 35% 0.00in /  0mm 56 W/m2
13:04 35.6 °F /  2 °C 10.3 °F /  -12.1 °C 29.99in /  1015.5hPa WNW 12.7mph /  20.4km/h 27mph /  43.5km/h 34.5% 0.00in /  0mm 207 W/m2
13:09 36.2 °F /  2.3 °C 10.5 °F /  -11.9 °C 29.99in /  1015.5hPa WNW 10.3mph /  16.6km/h 28mph /  45.1km/h 34% 0.00in /  0mm 98 W/m2
13:14 36.8 °F /  2.7 °C 11.6 °F /  -11.3 °C 29.99in /  1015.5hPa WNW 8.4mph /  13.5km/h 28mph /  45.1km/h 34.9% 0.00in /  0mm 439 W/m2
13:19 37.4 °F /  3 °C 11.8 °F /  -11.2 °C 29.99in /  1015.5hPa WNW 8.5mph /  13.7km/h 28mph /  45.1km/h 34.3% 0.00in /  0mm 439 W/m2
13:24 37.7 °F /  3.2 °C 12.2 °F /  -11 °C 29.99in /  1015.5hPa WNW 8.8mph /  14.2km/h 28mph /  45.1km/h 34.5% 0.00in /  0mm 431 W/m2
13:29 37.9 °F /  3.3 °C 12.8 °F /  -10.7 °C 29.99in /  1015.5hPa WNW 7.5mph /  12.1km/h 28mph /  45.1km/h 35.2% 0.00in /  0mm 185 W/m2
13:34 37.9 °F /  3.3 °C 12.9 °F /  -10.6 °C 30.00in /  1015.8hPa West 10.4mph /  16.7km/h 30mph /  48.3km/h 35.3% 0.00in /  0mm 142 W/m2
13:39 37.9 °F /  3.3 °C 13 °F /  -10.6 °C 30.01in /  1016.1hPa WNW 8.1mph /  13km/h 30mph /  48.3km/h 35.5% 0.00in /  0mm 134 W/m2
13:44 37.7 °F /  3.2 °C 13.5 °F /  -10.3 °C 30.01in /  1016.1hPa West 4.7mph /  7.6km/h 30mph /  48.3km/h 36.5% 0.00in /  0mm 257 W/m2
13:49 37.9 °F /  3.3 °C 13.9 °F /  -10.1 °C 30.01in /  1016.1hPa WNW 10.3mph /  16.6km/h 30mph /  48.3km/h 37% 0.00in /  0mm 283 W/m2
13:54 37.7 °F /  3.2 °C 12.9 °F /  -10.6 °C 30.01in /  1016.1hPa West 7mph /  11.3km/h 30mph /  48.3km/h 35.6% 0.00in /  0mm 118 W/m2
13:59 37.6 °F /  3.1 °C 13.7 °F /  -10.2 °C 30.01in /  1016.1hPa West 4.7mph /  7.6km/h 30mph /  48.3km/h 37% 0.00in /  0mm 158 W/m2
14:04 37.3 °F /  2.9 °C 14.1 °F /  -9.9 °C 30.01in /  1016.1hPa West 3.9mph /  6.3km/h 30mph /  48.3km/h 38.1% 0.00in /  0mm 146 W/m2
14:09 37.1 °F /  2.8 °C 14.2 °F /  -9.9 °C 30.01in /  1016.1hPa West 4.5mph /  7.2km/h 10mph /  16.1km/h 38.6% 0.00in /  0mm 107 W/m2
14:14 36.9 °F /  2.7 °C 13.7 °F /  -10.2 °C 30.02in /  1016.5hPa WNW 8.5mph /  13.7km/h 16mph /  25.7km/h 38% 0.00in /  0mm 77 W/m2
14:19 36.5 °F /  2.5 °C 12.3 °F /  -10.9 °C 30.02in /  1016.5hPa WNW 9.4mph /  15.1km/h 21mph /  33.8km/h 36.4% 0.00in /  0mm 51 W/m2
14:24 36 °F /  2.2 °C 11.1 °F /  -11.6 °C 30.02in /  1016.5hPa WNW 10.8mph /  17.4km/h 21mph /  33.8km/h 35.2% 0.00in /  0mm 33 W/m2
14:29 35.5 °F /  1.9 °C 10.6 °F /  -11.9 °C 30.02in /  1016.5hPa WNW 10.4mph /  16.7km/h 21mph /  33.8km/h 35% 0.00in /  0mm 26 W/m2
14:34 35.1 °F /  1.7 °C 10.3 °F /  -12.1 °C 30.02in /  1016.5hPa WNW 9.6mph /  15.4km/h 21mph /  33.8km/h 35% 0.00in /  0mm 26 W/m2
14:39 34.9 °F /  1.6 °C 10.2 °F /  -12.1 °C 30.03in /  1016.8hPa WNW 8mph /  12.9km/h 21mph /  33.8km/h 35.2% 0.00in /  0mm 39 W/m2
14:44 34.8 °F /  1.6 °C 10 °F /  -12.2 °C 30.03in /  1016.8hPa WNW 10.3mph /  16.6km/h 23mph /  37km/h 35% 0.00in /  0mm 35 W/m2
14:49 34.8 °F /  1.6 °C 10 °F /  -12.2 °C 30.03in /  1016.8hPa WNW 9.9mph /  15.9km/h 23mph /  37km/h 35% 0.00in /  0mm 39 W/m2
14:54 34.9 °F /  1.6 °C 9.9 °F /  -12.3 °C 30.03in /  1016.8hPa WNW 6.7mph /  10.8km/h 23mph /  37km/h 34.8% 0.00in /  0mm 33 W/m2
14:59 34.9 °F /  1.6 °C 10 °F /  -12.2 °C 30.03in /  1016.8hPa WNW 7.9mph /  12.7km/h 23mph /  37km/h 35% 0.00in /  0mm 28 W/m2
15:04 34.8 °F /  1.6 °C 10 °F /  -12.2 °C 30.03in /  1016.8hPa WNW 4.8mph /  7.7km/h 23mph /  37km/h 35% 0.00in /  0mm 21 W/m2
15:09 34.7 °F /  1.5 °C 10.1 °F /  -12.2 °C 30.04in /  1017.2hPa WNW 10.1mph /  16.3km/h 19mph /  30.6km/h 35.3% 0.00in /  0mm 21 W/m2
15:14 34.6 °F /  1.4 °C 9.9 °F /  -12.3 °C 30.04in /  1017.2hPa WNW 8.3mph /  13.4km/h 19mph /  30.6km/h 35.1% 0.00in /  0mm 23 W/m2
15:19 34.7 °F /  1.5 °C 10 °F /  -12.2 °C 30.04in /  1017.2hPa WNW 8.6mph /  13.8km/h 19mph /  30.6km/h 35.3% 0.00in /  0mm 21 W/m2
15:24 34.8 °F /  1.6 °C 9.9 °F /  -12.3 °C 30.04in /  1017.2hPa West 6.5mph /  10.5km/h 19mph /  30.6km/h 35% 0.00in /  0mm 19 W/m2
15:29 34.8 °F /  1.6 °C 10.6 °F /  -11.9 °C 30.04in /  1017.2hPa WNW 2.8mph /  4.5km/h 19mph /  30.6km/h 36.1% 0.00in /  0mm 19 W/m2
15:34 34.8 °F /  1.6 °C 11 °F /  -11.7 °C 30.05in /  1017.5hPa WNW 2.8mph /  4.5km/h 19mph /  30.6km/h 36.5% 0.00in /  0mm 19 W/m2
15:38 34.8 °F /  1.6 °C 10.6 °F /  -11.9 °C 30.05in /  1017.5hPa West 5.4mph /  8.7km/h 18mph /  29km/h 36% 0.00in /  0mm 18 W/m2
16:09 34.2 °F /  1.2 °C 11.7 °F /  -11.3 °C 30.07in /  1018.2hPa WNW 5.5mph /  8.9km/h 15mph /  24.1km/h 38.8% 0.00in /  0mm 9 W/m2
16:14 34.1 °F /  1.2 °C 11.8 °F /  -11.2 °C 30.07in /  1018.2hPa WNW 6.8mph /  10.9km/h 18mph /  29km/h 39% 0.00in /  0mm 7 W/m2
16:19 34 °F /  1.1 °C 11.6 °F /  -11.3 °C 30.08in /  1018.5hPa West 6.3mph /  10.1km/h 18mph /  29km/h 38.9% 0.00in /  0mm 5 W/m2
16:24 33.8 °F /  1 °C 11 °F /  -11.7 °C 30.08in /  1018.5hPa West 6.6mph /  10.6km/h 18mph /  29km/h 38.1% 0.00in /  0mm 0 W/m2
16:29 33.7 °F /  0.9 °C 10.7 °F /  -11.8 °C 30.08in /  1018.5hPa West 6.4mph /  10.3km/h 18mph /  29km/h 37.8% 0.00in /  0mm 0 W/m2
16:34 33.5 °F /  0.8 °C 10.5 °F /  -11.9 °C 30.08in /  1018.5hPa WNW 3.8mph /  6.1km/h 18mph /  29km/h 37.8% 0.00in /  0mm 0 W/m2
16:39 33.4 °F /  0.8 °C 10.3 °F /  -12.1 °C 30.08in /  1018.5hPa West 2.1mph /  3.4km/h 10mph /  16.1km/h 37.7% 0.00in /  0mm 0 W/m2
16:44 33.2 °F /  0.7 °C 9.8 °F /  -12.3 °C 30.09in /  1018.8hPa West 3.7mph /  6km/h 10mph /  16.1km/h 37% 0.00in /  0mm 0 W/m2
16:49 33 °F /  0.6 °C 9.3 °F /  -12.6 °C 30.09in /  1018.8hPa WNW 7.1mph /  11.4km/h 13mph /  20.9km/h 36.4% 0.00in /  0mm 0 W/m2
16:54 33 °F /  0.6 °C 8.6 °F /  -13 °C 30.09in /  1018.8hPa WNW 8mph /  12.9km/h 17mph /  27.4km/h 35.4% 0.00in /  0mm 0 W/m2
16:59 33 °F /  0.6 °C 8.4 °F /  -13.1 °C 30.09in /  1018.8hPa WNW 4.7mph /  7.6km/h 22mph /  35.4km/h 35% 0.00in /  0mm 0 W/m2
17:04 33 °F /  0.6 °C 8.3 °F /  -13.2 °C 30.10in /  1019.2hPa West 3.8mph /  6.1km/h 22mph /  35.4km/h 35% 0.00in /  0mm 0 W/m2
17:09 32.9 °F /  0.5 °C 8.5 °F /  -13.1 °C 30.10in /  1019.2hPa WNW 3.5mph /  5.6km/h 12mph /  19.3km/h 35.5% 0.00in /  0mm 0 W/m2
17:14 32.8 °F /  0.4 °C 8.4 °F /  -13.1 °C 30.11in /  1019.5hPa WSW 3.1mph /  5km/h 12mph /  19.3km/h 35.4% 0.00in /  0mm 0 W/m2
17:19 32.7 °F /  0.4 °C 8.4 °F /  -13.1 °C 30.11in /  1019.5hPa WNW 3.3mph /  5.3km/h 12mph /  19.3km/h 35.6% 0.00in /  0mm 0 W/m2
17:24 32.5 °F /  0.3 °C 8.6 °F /  -13 °C 30.11in /  1019.5hPa West 1.8mph /  2.9km/h 12mph /  19.3km/h 36% 0.00in /  0mm 0 W/m2
17:29 32.3 °F /  0.2 °C 8.4 °F /  -13.1 °C 30.12in /  1019.9hPa WNW 6.7mph /  10.8km/h 13mph /  20.9km/h 36% 0.00in /  0mm 0 W/m2
17:34 32.3 °F /  0.2 °C 8.1 °F /  -13.3 °C 30.12in /  1019.9hPa WNW 4.4mph /  7.1km/h 13mph /  20.9km/h 35.7% 0.00in /  0mm 0 W/m2
17:39 32.3 °F /  0.2 °C 8.3 °F /  -13.2 °C 30.13in /  1020.2hPa WNW 6.5mph /  10.5km/h 16mph /  25.7km/h 36% 0.00in /  0mm 0 W/m2
17:44 32.3 °F /  0.2 °C 8.3 °F /  -13.2 °C 30.13in /  1020.2hPa WNW 3.9mph /  6.3km/h 16mph /  25.7km/h 36% 0.00in /  0mm 0 W/m2
17:47 32.2 °F /  0.1 °C 8.3 °F /  -13.2 °C 30.13in /  1020.2hPa WNW 2.5mph /  4km/h 16mph /  25.7km/h 36.1% 0.00in /  0mm 0 W/m2
Hartford County Weather
Compliments of Weather Underground - 2 mb